createdAt,value
2018-10-18T00:03:57.668Z,100452.41
2018-10-18T00:08:04.689Z,100449.36
2018-10-18T00:12:11.770Z,100444.62
2018-10-18T00:16:18.755Z,100441.09
2018-10-18T00:20:25.780Z,100446.59
2018-10-18T00:24:32.831Z,100452.12
2018-10-18T00:28:39.856Z,100448.13
2018-10-18T00:32:46.903Z,100449.80
2018-10-18T00:36:53.902Z,100451.97
2018-10-18T00:41:00.899Z,100451.26
2018-10-18T00:45:09.930Z,100443.27
2018-10-18T00:49:16.987Z,100444.19
2018-10-18T00:53:23.986Z,100447.30
2018-10-18T00:57:31.009Z,100443.47
2018-10-18T01:01:38.255Z,100437.94
2018-10-18T01:05:45.279Z,100432.32
2018-10-18T01:09:52.366Z,100436.83
2018-10-18T01:13:59.402Z,100435.76
2018-10-18T01:18:06.662Z,100433.11
2018-10-18T01:22:13.547Z,100429.01
2018-10-18T01:26:20.537Z,100423.17
2018-10-18T01:30:29.974Z,100435.09
2018-10-18T01:34:37.017Z,100436.82
2018-10-18T01:38:44.042Z,100429.77
2018-10-18T01:42:51.078Z,100433.67
2018-10-18T01:46:58.158Z,100432.86
2018-10-18T01:51:05.210Z,100426.76
2018-10-18T01:55:12.254Z,100425.66
2018-10-18T01:59:19.357Z,100425.66
2018-10-18T02:03:26.420Z,100426.98
2018-10-18T02:07:33.421Z,100431.11
2018-10-18T02:11:40.814Z,100425.73
2018-10-18T02:15:47.845Z,100433.60
2018-10-18T02:19:54.943Z,100430.34
2018-10-18T02:24:02.062Z,100434.92
2018-10-18T02:28:08.987Z,100431.42
2018-10-18T02:32:16.045Z,100436.94
2018-10-18T02:36:23.108Z,100438.27
2018-10-18T02:40:30.124Z,100438.95
2018-10-18T02:44:37.151Z,100440.02
2018-10-18T02:48:44.224Z,100440.89
2018-10-18T02:52:51.251Z,100438.24
2018-10-18T02:56:58.250Z,100434.06
2018-10-18T03:01:05.339Z,100425.94
2018-10-18T03:05:12.379Z,100429.17
2018-10-18T03:09:19.416Z,100440.69
2018-10-18T03:13:26.485Z,100432.17
2018-10-18T03:17:33.488Z,100437.53
2018-10-18T03:21:40.571Z,100444.86
2018-10-18T03:25:47.599Z,100452.73
2018-10-18T03:29:54.635Z,100446.52
2018-10-18T03:34:01.650Z,100446.52
2018-10-18T03:38:08.669Z,100446.86
2018-10-18T03:42:15.758Z,100446.86
2018-10-18T03:46:22.678Z,100449.52
2018-10-18T03:50:29.681Z,100458.52
2018-10-18T03:54:36.708Z,100457.23
2018-10-18T03:58:43.735Z,100466.37
2018-10-18T04:02:50.770Z,100458.09
2018-10-18T04:06:57.764Z,100458.09
2018-10-18T04:11:04.801Z,100464.04
2018-10-18T04:15:11.833Z,100462.16
2018-10-18T04:19:18.835Z,100472.52
2018-10-18T04:23:35.844Z,100467.73
2018-10-18T04:27:42.861Z,100469.34
2018-10-18T04:31:49.899Z,100462.42
2018-10-18T04:35:56.944Z,100460.21
2018-10-18T04:40:03.948Z,100464.14
2018-10-18T04:44:11.027Z,100463.86
2018-10-18T04:48:18.220Z,100461.36
2018-10-18T04:52:25.102Z,100461.36
2018-10-18T04:56:32.129Z,100471.30
2018-10-18T05:00:39.176Z,100474.80
2018-10-18T05:05:44.003Z,100478.05
2018-10-18T05:09:51.022Z,100481.69
2018-10-18T05:13:58.033Z,100489.53
2018-10-18T05:18:05.122Z,100493.03
2018-10-18T05:22:12.220Z,100489.34
2018-10-18T05:26:19.391Z,100495.78
2018-10-18T05:30:26.443Z,100493.73
2018-10-18T05:34:33.448Z,100495.40
2018-10-18T05:38:40.468Z,100511.69
2018-10-18T05:42:47.472Z,100515.66
2018-10-18T05:46:54.581Z,100513.06
2018-10-18T05:51:01.581Z,100516.19
2018-10-18T05:55:10.696Z,100522.64
2018-10-18T05:59:22.637Z,100527.02
2018-10-18T06:03:32.276Z,100525.02
2018-10-18T06:07:39.431Z,100518.80
2018-10-18T06:11:46.630Z,100530.62
2018-10-18T06:15:53.804Z,100528.48
2018-10-18T06:20:00.863Z,100537.38
2018-10-18T06:24:07.883Z,100550.37
2018-10-18T06:28:14.919Z,100541.98
2018-10-18T06:32:21.961Z,100548.70
2018-10-18T06:36:28.981Z,100552.69
2018-10-18T06:40:37.064Z,100561.63
2018-10-18T06:44:44.131Z,100567.22
2018-10-18T06:48:51.311Z,100579.75
2018-10-18T06:52:58.328Z,100558.78
2018-10-18T06:57:05.901Z,100563.80
2018-10-18T07:01:12.984Z,100577.14
2018-10-18T07:05:20.214Z,100577.14
2018-10-18T07:09:27.315Z,100583.09
2018-10-18T07:13:34.475Z,100581.39
2018-10-18T07:17:42.410Z,100581.39
2018-10-18T07:21:51.462Z,100605.26
2018-10-18T07:25:58.590Z,100607.77
2018-10-18T07:30:06.592Z,100613.65
2018-10-18T07:34:13.741Z,100616.94
2018-10-18T07:38:20.920Z,100617.97
2018-10-18T07:42:28.549Z,100611.75
2018-10-18T07:46:35.823Z,100612.56
2018-10-18T07:50:43.101Z,100622.87
2018-10-18T07:54:50.442Z,100627.80
2018-10-18T07:58:58.009Z,100628.02
2018-10-18T08:03:05.541Z,100632.46
2018-10-18T08:07:12.639Z,100641.20
2018-10-18T08:11:19.659Z,100643.22
2018-10-18T08:15:26.699Z,100644.70
2018-10-18T08:19:33.699Z,100645.34
2018-10-18T08:23:40.721Z,100648.30
2018-10-18T08:27:47.858Z,100646.42
2018-10-18T08:31:54.947Z,100644.61
2018-10-18T08:36:01.953Z,100645.88
2018-10-18T08:40:10.217Z,100645.64
2018-10-18T08:44:17.318Z,100645.05
2018-10-18T08:48:24.315Z,100643.36
2018-10-18T08:52:31.303Z,100651.30
2018-10-18T08:56:38.294Z,100658.44
2018-10-18T09:00:45.416Z,100655.19
2018-10-18T09:04:52.665Z,100656.99
2018-10-18T09:08:59.851Z,100666.03
2018-10-18T09:13:07.180Z,100661.84
2018-10-18T09:17:14.184Z,100662.89
2018-10-18T09:21:21.436Z,100656.23
2018-10-18T09:25:28.646Z,100661.60
2018-10-18T09:29:35.732Z,100655.65
2018-10-18T09:33:42.805Z,100653.95
2018-10-18T09:37:49.808Z,100648.20
2018-10-18T09:41:56.854Z,100639.48
2018-10-18T09:46:03.920Z,100635.23
2018-10-18T09:50:12.404Z,100626.11
2018-10-18T09:54:19.832Z,100632.73
2018-10-18T09:58:27.011Z,100632.59
2018-10-18T10:02:55.874Z,100634.09
2018-10-18T10:07:02.967Z,100632.34
2018-10-18T10:11:10.037Z,100630.64
2018-10-18T10:15:17.310Z,100626.35
2018-10-18T10:19:24.855Z,100624.36
2018-10-18T10:23:32.010Z,100624.00
2018-10-18T10:27:39.291Z,100621.34
2018-10-18T10:31:46.542Z,100616.61
2018-10-18T10:35:53.590Z,100612.23
2018-10-18T10:40:00.805Z,100613.89
2018-10-18T10:44:10.256Z,100606.79
2018-10-18T10:48:19.570Z,100595.25
2018-10-18T10:52:26.629Z,100597.28
2018-10-18T10:56:33.937Z,100597.88
2018-10-18T11:01:07.255Z,100594.68
2018-10-18T11:05:14.427Z,100593.25
2018-10-18T11:09:21.605Z,100593.89
2018-10-18T11:13:29.977Z,100590.66
2018-10-18T11:17:37.016Z,100591.12
2018-10-18T11:21:44.148Z,100582.96
2018-10-18T11:25:51.299Z,100583.07
2018-10-18T11:29:58.371Z,100581.94
2018-10-18T11:34:05.569Z,100578.20
2018-10-18T11:38:13.369Z,100580.83
2018-10-18T11:42:20.652Z,100581.45
2018-10-18T11:46:27.648Z,100577.62
2018-10-18T11:50:34.598Z,100583.37
2018-10-18T11:54:41.832Z,100579.20
2018-10-18T11:58:49.061Z,100581.39
2018-10-18T12:02:56.142Z,100578.98
2018-10-18T12:07:03.173Z,100575.06
2018-10-18T12:11:10.279Z,100568.83
2018-10-18T12:15:17.253Z,100564.92
2018-10-18T12:19:24.283Z,100567.81
2018-10-18T12:23:31.361Z,100569.12
2018-10-18T12:27:38.504Z,100562.79
2018-10-18T12:31:45.738Z,100562.72
2018-10-18T12:35:52.900Z,100559.68
2018-10-18T12:40:00.006Z,100564.00
2018-10-18T12:44:07.152Z,100559.59
2018-10-18T12:48:14.275Z,100567.58
2018-10-18T12:52:22.654Z,100567.18
2018-10-18T12:56:29.969Z,100566.46
2018-10-18T13:00:37.250Z,100570.15
2018-10-18T13:04:44.735Z,100570.52
2018-10-18T13:08:51.930Z,100575.21
2018-10-18T13:12:59.147Z,100576.66
2018-10-18T13:17:06.733Z,100570.56
2018-10-18T13:21:13.990Z,100576.09
2018-10-18T13:25:21.246Z,100568.38
2018-10-18T13:29:28.471Z,100572.80
2018-10-18T13:33:35.651Z,100565.73
2018-10-18T13:37:42.796Z,100577.13
2018-10-18T13:41:49.829Z,100575.34
2018-10-18T13:45:57.023Z,100572.26
2018-10-18T13:50:04.361Z,100575.58
2018-10-18T13:54:11.688Z,100576.59
2018-10-18T13:58:18.864Z,100578.46
2018-10-18T14:02:26.154Z,100574.08
2018-10-18T14:06:33.323Z,100575.90
2018-10-18T14:10:40.614Z,100572.37
2018-10-18T14:14:47.886Z,100567.39
2018-10-18T14:18:55.050Z,100572.20
2018-10-18T14:23:02.299Z,100566.08
2018-10-18T14:27:09.455Z,100566.38
2018-10-18T14:31:16.635Z,100560.99
2018-10-18T14:35:23.904Z,100559.43
2018-10-18T14:39:31.194Z,100570.00
2018-10-18T14:43:38.690Z,100572.86
2018-10-18T14:47:45.753Z,100568.08
2018-10-18T14:51:52.778Z,100569.31
2018-10-18T14:55:59.821Z,100572.71
2018-10-18T15:00:08.422Z,100574.90
2018-10-18T15:04:15.604Z,100574.77
2018-10-18T15:08:22.656Z,100580.97
2018-10-18T15:12:29.699Z,100569.76
2018-10-18T15:16:36.837Z,100584.17
2018-10-18T15:20:44.891Z,100586.53
2018-10-18T15:24:51.934Z,100591.22
2018-10-18T15:28:59.064Z,100589.37
2018-10-18T15:33:06.114Z,100595.58
2018-10-18T15:37:13.184Z,100599.58
2018-10-18T15:41:20.445Z,100598.07
2018-10-18T15:45:27.532Z,100601.55
2018-10-18T15:49:34.579Z,100600.89
2018-10-18T15:53:41.848Z,100606.53
2018-10-18T15:57:48.778Z,100604.85
2018-10-18T16:01:55.845Z,100606.05
2018-10-18T16:06:03.075Z,100605.66
2018-10-18T16:10:10.996Z,100620.50
2018-10-18T16:14:18.101Z,100623.00
2018-10-18T16:18:25.114Z,100624.47
2018-10-18T16:22:32.172Z,100628.98
2018-10-18T16:26:39.296Z,100635.75
2018-10-18T16:30:46.183Z,100637.50
2018-10-18T16:34:53.284Z,100647.44
2018-10-18T16:39:03.111Z,100651.61
2018-10-18T16:43:10.315Z,100655.85
2018-10-18T16:47:17.414Z,100655.48
2018-10-18T16:51:24.527Z,100656.91
2018-10-18T16:55:31.593Z,100656.67
2018-10-18T16:59:38.606Z,100660.12
2018-10-18T17:03:45.662Z,100662.53
2018-10-18T17:07:52.795Z,100670.82
2018-10-18T17:12:00.208Z,100672.59
2018-10-18T17:16:07.522Z,100681.94
2018-10-18T17:20:14.536Z,100686.16
2018-10-18T17:24:21.604Z,100692.25
2018-10-18T17:28:28.676Z,100697.80
2018-10-18T17:32:35.878Z,100691.57
2018-10-18T17:36:42.953Z,100696.78
2018-10-18T17:40:53.046Z,100701.21
2018-10-18T17:45:02.952Z,100705.52
2018-10-18T17:49:24.970Z,100700.62
2018-10-18T17:53:32.108Z,100692.59
2018-10-18T17:57:39.565Z,100697.27
2018-10-18T18:01:47.141Z,100704.13
2018-10-18T18:05:54.207Z,100707.91
2018-10-18T18:10:01.310Z,100709.64
2018-10-18T18:14:08.624Z,100723.20
2018-10-18T18:18:15.921Z,100716.92
2018-10-18T18:22:23.187Z,100723.37
2018-10-18T18:26:44.761Z,100735.13
2018-10-18T18:30:37.610Z,100734.55
2018-10-18T18:34:44.716Z,100734.70
2018-10-18T18:38:51.905Z,100730.69
2018-10-18T18:42:58.929Z,100740.19
2018-10-18T18:47:06.053Z,100735.65
2018-10-18T18:51:13.205Z,100744.92
2018-10-18T18:55:20.215Z,100745.67
2018-10-18T18:59:27.254Z,100750.17
2018-10-18T19:03:34.300Z,100753.31
2018-10-18T19:07:41.397Z,100754.16
2018-10-18T19:11:48.581Z,100763.62
2018-10-18T19:15:55.785Z,100758.66
2018-10-18T19:20:06.258Z,100760.80
2018-10-18T19:24:13.751Z,100758.91
2018-10-18T19:28:25.968Z,100760.73
2018-10-18T19:32:48.677Z,100762.60
2018-10-18T19:36:58.403Z,100760.17
2018-10-18T19:41:03.787Z,100763.66
2018-10-18T19:45:14.503Z,100771.41
2018-10-18T19:49:19.354Z,100780.01
2018-10-18T19:53:26.776Z,100783.91
2018-10-18T19:57:34.253Z,100775.00
2018-10-18T20:01:42.085Z,100776.70
2018-10-18T20:05:49.540Z,100775.02
2018-10-18T20:09:56.753Z,100781.33
2018-10-18T20:14:04.061Z,100783.80
2018-10-18T20:18:11.990Z,100788.98
2018-10-18T20:22:19.526Z,100792.87
2018-10-18T20:26:26.927Z,100789.97
2018-10-18T20:30:34.056Z,100787.55
2018-10-18T20:34:41.403Z,100799.04
2018-10-18T20:38:48.610Z,100801.12
2018-10-18T20:42:55.679Z,100800.23
2018-10-18T20:47:02.812Z,100805.96
2018-10-18T20:51:09.938Z,100813.03
2018-10-18T20:55:16.957Z,100813.17
2018-10-18T20:59:24.044Z,100818.09
2018-10-18T21:03:31.046Z,100813.39
2018-10-18T21:07:38.105Z,100818.98
2018-10-18T21:11:45.181Z,100814.69
2018-10-18T21:15:52.673Z,100824.06
2018-10-18T21:19:59.805Z,100827.46
2018-10-18T21:24:06.753Z,100816.36
2018-10-18T21:28:14.019Z,100814.86
2018-10-18T21:32:21.131Z,100797.72
2018-10-18T21:36:28.220Z,100797.72
2018-10-18T21:40:35.367Z,100805.41
2018-10-18T21:44:44.614Z,100805.75
2018-10-18T21:48:51.680Z,100805.92
2018-10-18T21:52:58.842Z,100806.77
2018-10-18T21:57:06.457Z,100806.34
2018-10-18T22:01:13.436Z,100798.27
2018-10-18T22:05:20.577Z,100800.80
2018-10-18T22:09:27.621Z,100802.61
2018-10-18T22:13:34.816Z,100802.61
2018-10-18T22:17:41.874Z,100801.94
2018-10-18T22:21:48.896Z,100800.23
2018-10-18T22:25:55.956Z,100799.50
2018-10-18T22:30:03.075Z,100792.26
2018-10-18T22:34:10.209Z,100799.39
2018-10-18T22:38:17.236Z,100793.51
2018-10-18T22:42:24.294Z,100786.80
2018-10-18T22:46:31.323Z,100786.80
2018-10-18T22:50:38.326Z,100777.74
2018-10-18T22:54:45.321Z,100780.28
2018-10-18T22:58:54.678Z,100780.22
2018-10-18T23:03:01.860Z,100781.89
2018-10-18T23:07:08.924Z,100778.52
2018-10-18T23:11:16.040Z,100788.52
2018-10-18T23:15:23.031Z,100783.83
2018-10-18T23:19:30.136Z,100791.06
2018-10-18T23:23:37.190Z,100788.32
2018-10-18T23:27:44.205Z,100786.50
2018-10-18T23:31:51.196Z,100785.30
2018-10-18T23:35:58.230Z,100784.46
2018-10-18T23:40:05.352Z,100784.46
2018-10-18T23:44:12.395Z,100779.07
2018-10-18T23:48:19.551Z,100779.07
2018-10-18T23:52:26.483Z,100784.59
2018-10-18T23:56:33.511Z,100784.47
